Here is the Quick Look data you requested

The Data originates at the National Weather Service, and is made available here by the UAlbany Department of Atmospheric and Environmental Sciences

Surface Observations

K8B0 142055Z AUTO 29011G18KT 10SM CLR M15/M20 A2953 RMK AO2=
KAUG 142053Z AUTO 29006KT 10SM CLR M07/M19 A2963 RMK AO2 SLP042 T10721194 53026=
KBGR 142053Z 00000KT 10SM FEW100 M09/M14 A2960 RMK AO2 SLP028 T10941144 53021=
KBHB 142056Z AUTO 30007KT 10SM CLR M08/M16 A2962 RMK AO2 SLP033 6//// T10831156
 53023 FZRANO PNO $=
KCAR 142054Z AUTO 25010KT 10SM FEW029 M15/M20 A2944 RMK AO2 SLP988 60000
 T11501200 53016=
KFVE 142053Z AUTO 26012G21KT 10SM FEW033 BKN110 M17/M21 A2937 RMK AO2 SLP968
 T11721211 53014=
KGNR 142056Z AUTO 32016G20KT M15/M19 A2946 RMK AO1 SLP011 T11501194 53024=
KHUL 142053Z AUTO 28012G17KT 10SM CLR M12/M18 A2948 RMK AO2 SLP996 T11221183
 53021=
KIWI 142053Z AUTO 26003KT 10SM CLR M07/M16 A2966 RMK AO2 SLP046 T10671156 53025=
KIZG 142054Z AUTO 31008KT 10SM CLR M07/M20 A2966 RMK AO2 SLP055 T10721200 53036=
KLEW 142056Z AUTO 33004KT 10SM CLR M06/M16 A2965 RMK AO2 SLP056 T10611161 53025
 FZRANO=
KMLT 142053Z AUTO 27008G18KT 230V300 10SM CLR M12/M18 A2955 RMK AO2 SLP021
 T11171178 53021 TSNO=
KPQI 142056Z AUTO 27009KT 10SM BKN034 M14/M19 A2948 RMK AO2 SLP028 T11441189
 53017 FZRANO=
KPWM 142051Z 25010G16KT 10SM CLR M05/M17 A2967 RMK AO2 SLP049 T10501167 53029=
KRKD 142056Z AUTO 27009KT 10SM CLR M07/M16 A2963 RMK AO2 SLP037 T10671156 53028
 FZRANO=
KSFM 142056Z AUTO 29011G17KT 10SM CLR M06/M17 A2969 RMK AO2 SLP062 T10611167
 53031 FZRANO=
KWVL 142056Z AUTO 26008G15KT 10SM CLR M08/M18 A2958 RMK AO2 SLP051 T10831183
 53025 FZRANO=